createdAt,value
2023-01-09T00:01:42.077Z,99132.16
2023-01-09T00:04:10.423Z,99141.56
2023-01-09T00:06:42.483Z,99135.41
2023-01-09T00:09:11.175Z,99130.28
2023-01-09T00:11:39.469Z,99126.00
2023-01-09T00:14:06.818Z,99121.50
2023-01-09T00:16:34.169Z,99117.16
2023-01-09T00:19:01.543Z,99112.03
2023-01-09T00:21:28.871Z,99108.53
2023-01-09T00:23:56.123Z,99105.94
2023-01-09T00:26:23.724Z,99108.44
2023-01-09T00:28:52.642Z,99093.63
2023-01-09T00:31:21.174Z,99081.72
2023-01-09T00:34:10.445Z,99074.00
2023-01-09T00:36:37.713Z,99069.78
2023-01-09T00:39:06.304Z,99062.81
2023-01-09T00:41:47.437Z,99068.91
2023-01-09T00:44:24.161Z,99057.44
2023-01-09T00:47:01.651Z,99071.25
2023-01-09T00:49:34.821Z,99064.06
2023-01-09T00:52:05.735Z,99058.09
2023-01-09T00:54:33.088Z,99063.28
2023-01-09T00:57:00.752Z,99056.28
2023-01-09T00:59:28.629Z,99039.69
2023-01-09T01:01:57.265Z,99040.66
2023-01-09T01:04:43.342Z,99051.94
2023-01-09T01:07:31.553Z,99046.72
2023-01-09T01:09:58.713Z,99036.34
2023-01-09T01:12:26.257Z,99041.38
2023-01-09T01:14:53.978Z,99046.06
2023-01-09T01:17:21.171Z,99044.63
2023-01-09T01:19:48.593Z,99050.72
2023-01-09T01:22:15.843Z,99041.22
2023-01-09T01:24:43.103Z,99040.97
2023-01-09T01:27:10.404Z,99049.81
2023-01-09T01:29:37.556Z,99055.66
2023-01-09T01:32:05.062Z,99065.06
2023-01-09T01:34:32.199Z,99054.84
2023-01-09T01:36:59.483Z,99053.16
2023-01-09T01:39:27.717Z,99057.63
2023-01-09T01:41:54.898Z,99041.13
2023-01-09T01:45:07.048Z,99032.66
2023-01-09T01:48:07.424Z,99033.44
2023-01-09T01:51:05.521Z,99025.19
2023-01-09T01:53:49.250Z,99024.19
2023-01-09T01:56:24.547Z,99028.50
2023-01-09T01:59:19.630Z,99032.31
2023-01-09T02:01:54.301Z,99025.97
2023-01-09T02:04:21.941Z,99025.09
2023-01-09T02:06:53.987Z,99015.59
2023-01-09T02:09:23.282Z,99017.38
2023-01-09T02:11:56.502Z,99018.19
2023-01-09T02:14:29.410Z,99013.06
2023-01-09T02:17:30.997Z,99007.16
2023-01-09T02:20:48.707Z,99010.47
2023-01-09T02:24:04.064Z,99017.69
2023-01-09T02:27:22.264Z,99018.34
2023-01-09T02:30:45.653Z,99005.03
2023-01-09T02:33:54.340Z,98999.59
2023-01-09T02:37:16.635Z,98998.25
2023-01-09T02:40:34.881Z,98982.84
2023-01-09T02:43:03.564Z,98963.59
2023-01-09T02:45:31.942Z,98956.16
2023-01-09T02:47:59.420Z,98948.34
2023-01-09T02:51:11.932Z,98941.31
2023-01-09T02:53:59.642Z,98953.06
2023-01-09T02:56:57.853Z,98958.91
2023-01-09T03:00:03.976Z,98963.19
2023-01-09T03:03:12.849Z,98968.38
2023-01-09T03:05:57.225Z,98973.34
2023-01-09T03:08:53.117Z,98983.47
2023-01-09T03:11:22.034Z,98967.72
2023-01-09T03:14:01.205Z,98966.94
2023-01-09T03:16:36.198Z,98968.97
2023-01-09T03:19:14.176Z,98960.34
2023-01-09T03:21:42.281Z,98958.59
2023-01-09T03:24:09.663Z,98956.06
2023-01-09T03:26:37.093Z,98948.44
2023-01-09T03:29:04.659Z,98946.94
2023-01-09T03:31:32.178Z,98940.41
2023-01-09T03:33:59.545Z,98932.53
2023-01-09T03:36:27.013Z,98926.50
2023-01-09T03:38:54.304Z,98915.94
2023-01-09T03:41:21.710Z,98922.00
2023-01-09T03:43:49.103Z,98917.88
2023-01-09T03:46:17.300Z,98911.78
2023-01-09T03:48:44.616Z,98910.16
2023-01-09T03:51:11.865Z,98908.38
2023-01-09T03:53:39.319Z,98899.72
2023-01-09T03:56:07.220Z,98903.84
2023-01-09T03:58:34.508Z,98903.06
2023-01-09T04:01:05.476Z,98907.09
2023-01-09T04:03:32.800Z,98888.78
2023-01-09T04:06:00.514Z,98880.50
2023-01-09T04:08:27.765Z,98873.84
2023-01-09T04:10:56.434Z,98891.53
2023-01-09T04:13:23.930Z,98885.84
2023-01-09T04:15:51.095Z,98893.81
2023-01-09T04:18:18.374Z,98890.53
2023-01-09T04:20:48.560Z,98888.03
2023-01-09T04:23:16.295Z,98901.25
2023-01-09T04:25:43.633Z,98916.41
2023-01-09T04:28:10.836Z,98917.81
2023-01-09T04:30:38.086Z,98930.13
2023-01-09T04:33:05.267Z,98920.50
2023-01-09T04:35:33.137Z,98924.94
2023-01-09T04:38:00.872Z,98928.03
2023-01-09T04:40:28.112Z,98923.66
2023-01-09T04:42:55.416Z,98910.44
2023-01-09T04:45:22.641Z,98913.81
2023-01-09T04:47:50.002Z,98931.91
2023-01-09T04:50:17.407Z,98935.31
2023-01-09T04:52:44.737Z,98940.75
2023-01-09T04:55:11.966Z,98936.47
2023-01-09T04:57:39.390Z,98919.16
2023-01-09T05:00:12.184Z,98920.06
2023-01-09T05:02:41.842Z,98903.53
2023-01-09T05:05:11.864Z,98909.69
2023-01-09T05:07:39.706Z,98908.00
2023-01-09T05:10:09.752Z,98905.41
2023-01-09T05:12:37.657Z,98903.75
2023-01-09T05:15:08.143Z,98901.09
2023-01-09T05:17:35.726Z,98890.78
2023-01-09T05:20:03.543Z,98881.38
2023-01-09T05:22:30.948Z,98878.72
2023-01-09T05:25:00.359Z,98895.19
2023-01-09T05:27:27.839Z,98902.06
2023-01-09T05:29:55.116Z,98904.50
2023-01-09T05:32:23.088Z,98896.88
2023-01-09T05:34:50.375Z,98889.09
2023-01-09T05:37:17.641Z,98887.41
2023-01-09T05:39:44.761Z,98896.06
2023-01-09T05:42:11.935Z,98894.28
2023-01-09T05:44:39.212Z,98901.25
2023-01-09T05:47:06.419Z,98900.47
2023-01-09T05:49:33.526Z,98900.47
2023-01-09T05:52:00.650Z,98897.84
2023-01-09T05:54:27.853Z,98910.34
2023-01-09T05:56:55.001Z,98910.66
2023-01-09T05:59:22.179Z,98904.97
2023-01-09T06:01:49.390Z,98896.22
2023-01-09T06:04:16.911Z,98894.13
2023-01-09T06:06:44.142Z,98910.50
2023-01-09T06:09:11.409Z,98911.31
2023-01-09T06:11:38.816Z,98906.13
2023-01-09T06:14:06.716Z,98905.25
2023-01-09T06:16:33.865Z,98910.44
2023-01-09T06:19:01.284Z,98909.53
2023-01-09T06:21:29.489Z,98908.72
2023-01-09T06:23:56.799Z,98909.53
2023-01-09T06:26:27.590Z,98902.41
2023-01-09T06:28:56.074Z,98890.22
2023-01-09T06:31:25.692Z,98887.72
2023-01-09T06:33:53.891Z,98898.84
2023-01-09T06:36:22.538Z,98897.06
2023-01-09T06:38:49.892Z,98904.03
2023-01-09T06:41:17.910Z,98906.69
2023-01-09T06:43:45.101Z,98909.38
2023-01-09T06:46:12.413Z,98907.75
2023-01-09T06:48:39.558Z,98890.38
2023-01-09T06:51:06.979Z,98886.84
2023-01-09T06:53:35.118Z,98885.84
2023-01-09T06:56:02.815Z,98892.81
2023-01-09T06:58:29.976Z,98892.97
2023-01-09T07:00:59.477Z,98905.97
2023-01-09T07:03:26.819Z,98900.75
2023-01-09T07:05:54.123Z,98900.75
2023-01-09T07:08:21.388Z,98904.19
2023-01-09T07:10:48.515Z,98898.16
2023-01-09T07:13:15.663Z,98893.81
2023-01-09T07:15:42.873Z,98893.66
2023-01-09T07:18:10.160Z,98893.81
2023-01-09T07:20:41.489Z,98890.97
2023-01-09T07:23:15.727Z,98889.91
2023-01-09T07:25:43.236Z,98889.81
2023-01-09T07:28:10.977Z,98885.63
2023-01-09T07:30:38.234Z,98885.53
2023-01-09T07:33:05.414Z,98882.19
2023-01-09T07:35:32.848Z,98887.31
2023-01-09T07:38:00.048Z,98886.19
2023-01-09T07:40:27.196Z,98893.81
2023-01-09T07:42:54.491Z,98899.00
2023-01-09T07:45:22.077Z,98906.03
2023-01-09T07:47:49.416Z,98895.09
2023-01-09T07:50:16.874Z,98892.66
2023-01-09T07:52:46.517Z,98893.22
2023-01-09T07:55:16.012Z,98897.84
2023-01-09T07:57:43.821Z,98894.59
2023-01-09T08:00:13.390Z,98903.66
2023-01-09T08:02:40.646Z,98899.28
2023-01-09T08:05:13.597Z,98912.09
2023-01-09T08:07:41.587Z,98900.09
2023-01-09T08:10:10.574Z,98900.28
2023-01-09T08:12:37.823Z,98904.41
2023-01-09T08:15:05.852Z,98906.00
2023-01-09T08:17:33.050Z,98907.91
2023-01-09T08:20:00.241Z,98917.38
2023-01-09T08:22:27.432Z,98919.22
2023-01-09T08:24:54.623Z,98905.47
2023-01-09T08:27:21.783Z,98907.06
2023-01-09T08:29:48.927Z,98906.25
2023-01-09T08:32:16.115Z,98894.09
2023-01-09T08:34:43.369Z,98902.88
2023-01-09T08:37:10.706Z,98899.44
2023-01-09T08:39:37.930Z,98899.75
2023-01-09T08:42:23.775Z,98902.50
2023-01-09T08:45:09.773Z,98917.59
2023-01-09T08:47:37.001Z,98911.59
2023-01-09T08:50:04.972Z,98913.44
2023-01-09T08:52:32.764Z,98910.25
2023-01-09T08:54:59.915Z,98909.38
2023-01-09T08:57:27.048Z,98910.56
2023-01-09T08:59:54.306Z,98911.56
2023-01-09T09:02:21.490Z,98905.69
2023-01-09T09:04:52.795Z,98905.84
2023-01-09T09:07:26.537Z,98914.75
2023-01-09T09:09:54.564Z,98908.91
2023-01-09T09:12:22.519Z,98912.00
2023-01-09T09:15:08.689Z,98913.78
2023-01-09T09:17:36.034Z,98920.00
2023-01-09T09:20:04.548Z,98916.13
2023-01-09T09:22:31.695Z,98913.13
2023-01-09T09:24:59.007Z,98911.59
2023-01-09T09:27:26.295Z,98906.47
2023-01-09T09:29:53.428Z,98904.03
2023-01-09T09:32:20.575Z,98915.06
2023-01-09T09:34:47.746Z,98911.19
2023-01-09T09:37:14.989Z,98908.59
2023-01-09T09:39:42.171Z,98907.13
2023-01-09T09:43:27.660Z,98901.41
2023-01-09T09:46:20.866Z,98910.50
2023-01-09T09:49:14.944Z,98891.94
2023-01-09T09:52:32.875Z,98896.56
2023-01-09T09:55:13.002Z,98885.41
2023-01-09T09:57:40.522Z,98880.50
2023-01-09T10:00:17.009Z,98871.53
2023-01-09T10:02:58.485Z,98864.28
2023-01-09T10:05:43.882Z,98859.66
2023-01-09T10:08:54.457Z,98856.22
2023-01-09T10:12:27.934Z,98843.50
2023-01-09T10:16:16.751Z,98825.84
2023-01-09T10:19:10.967Z,98832.81
2023-01-09T10:22:06.193Z,98829.56
2023-01-09T10:25:15.272Z,98829.38
2023-01-09T10:28:37.431Z,98822.25
2023-01-09T10:31:40.823Z,98813.34
2023-01-09T10:34:44.834Z,98820.63
2023-01-09T10:37:28.188Z,98816.72
2023-01-09T10:40:07.139Z,98817.94
2023-01-09T10:42:51.846Z,98822.31
2023-01-09T10:45:54.787Z,98819.97
2023-01-09T10:48:42.973Z,98811.81
2023-01-09T10:51:24.360Z,98804.38
2023-01-09T10:53:56.601Z,98801.69
2023-01-09T10:56:28.574Z,98805.13
2023-01-09T10:58:56.709Z,98791.84
2023-01-09T11:01:39.905Z,98784.06
2023-01-09T11:04:35.103Z,98783.06
2023-01-09T11:07:24.035Z,98760.16
2023-01-09T11:10:08.235Z,98760.09
2023-01-09T11:12:36.655Z,98759.47
2023-01-09T11:15:16.144Z,98755.09
2023-01-09T11:17:44.415Z,98742.13
2023-01-09T11:20:28.796Z,98746.03
2023-01-09T11:22:58.576Z,98741.38
2023-01-09T11:25:29.000Z,98743.19
2023-01-09T11:28:02.184Z,98748.56
2023-01-09T11:30:34.054Z,98741.44
2023-01-09T11:33:02.255Z,98730.19
2023-01-09T11:35:34.625Z,98718.09
2023-01-09T11:38:31.069Z,98724.53
2023-01-09T11:41:03.416Z,98716.00
2023-01-09T11:43:35.487Z,98724.44
2023-01-09T11:46:11.420Z,98712.13
2023-01-09T11:48:56.939Z,98724.78
2023-01-09T11:51:35.396Z,98719.22
2023-01-09T11:54:28.870Z,98731.56
2023-01-09T11:56:56.663Z,98728.41
2023-01-09T11:59:29.664Z,98729.75
2023-01-09T12:02:38.575Z,98718.63
2023-01-09T12:05:44.712Z,98713.47
2023-01-09T12:09:05.161Z,98726.34
2023-01-09T12:12:01.557Z,98729.63
2023-01-09T12:14:46.920Z,98740.34
2023-01-09T12:18:15.979Z,98729.63
2023-01-09T12:21:22.276Z,98721.22
2023-01-09T12:23:59.327Z,98714.25
2023-01-09T12:27:03.384Z,98717.97
2023-01-09T12:30:08.632Z,98729.84
2023-01-09T12:32:57.366Z,98712.81
2023-01-09T12:35:46.717Z,98723.09
2023-01-09T12:38:35.792Z,98724.59
2023-01-09T12:41:42.755Z,98730.75
2023-01-09T12:44:47.823Z,98718.16
2023-01-09T12:48:04.461Z,98723.91
2023-01-09T12:51:31.031Z,98729.91
2023-01-09T12:54:34.300Z,98719.38
2023-01-09T12:57:20.140Z,98708.59
2023-01-09T12:59:58.476Z,98713.75
2023-01-09T13:02:46.147Z,98715.19
2023-01-09T13:05:45.456Z,98719.06
2023-01-09T13:08:41.633Z,98718.63
2023-01-09T13:11:28.951Z,98709.47
2023-01-09T13:14:11.094Z,98721.28
2023-01-09T13:16:50.132Z,98713.91
2023-01-09T13:19:36.839Z,98715.31
2023-01-09T13:22:05.984Z,98706.22
2023-01-09T13:25:14.904Z,98712.63
2023-01-09T13:27:48.975Z,98715.53
2023-01-09T13:30:36.748Z,98711.63
2023-01-09T13:33:24.118Z,98713.78
2023-01-09T13:35:56.090Z,98714.41
2023-01-09T13:38:30.712Z,98706.16
2023-01-09T13:41:33.837Z,98704.34
2023-01-09T13:44:23.615Z,98702.94
2023-01-09T13:46:58.944Z,98704.53
2023-01-09T13:49:47.143Z,98711.53
2023-01-09T13:52:43.430Z,98708.03
2023-01-09T13:55:16.971Z,98709.81
2023-01-09T13:58:05.506Z,98715.97
2023-01-09T14:00:58.971Z,98719.75
2023-01-09T14:03:38.455Z,98705.19
2023-01-09T14:06:16.255Z,98715.13
2023-01-09T14:08:45.091Z,98701.34
2023-01-09T14:11:20.769Z,98702.38
2023-01-09T14:13:59.367Z,98696.41
2023-01-09T14:16:29.568Z,98705.19
2023-01-09T14:19:21.406Z,98692.16
2023-01-09T14:21:58.114Z,98695.53
2023-01-09T14:24:33.289Z,98691.84
2023-01-09T14:27:02.107Z,98693.59
2023-01-09T14:29:29.565Z,98704.28
2023-01-09T14:32:29.740Z,98701.00
2023-01-09T14:35:19.349Z,98699.56
2023-01-09T14:38:23.438Z,98715.19
2023-01-09T14:41:41.863Z,98697.66
2023-01-09T14:44:45.176Z,98699.69
2023-01-09T14:47:32.751Z,98696.28
2023-01-09T14:50:29.744Z,98695.50
2023-01-09T14:53:34.745Z,98705.25
2023-01-09T14:56:06.645Z,98707.00
2023-01-09T14:58:37.946Z,98712.72
2023-01-09T15:01:14.840Z,98717.91
2023-01-09T15:03:59.407Z,98716.91
2023-01-09T15:06:42.933Z,98709.22
2023-01-09T15:10:01.378Z,98710.09
2023-01-09T15:12:29.531Z,98712.66
2023-01-09T15:15:01.492Z,98718.50
2023-01-09T15:17:34.390Z,98730.44
2023-01-09T15:20:06.555Z,98734.00
2023-01-09T15:22:37.431Z,98740.72
2023-01-09T15:25:38.830Z,98742.25
2023-01-09T15:28:46.360Z,98751.75
2023-01-09T15:31:19.091Z,98752.38
2023-01-09T15:33:48.044Z,98759.78
2023-01-09T15:36:27.438Z,98759.56
2023-01-09T15:38:55.250Z,98749.66
2023-01-09T15:41:48.479Z,98753.22
2023-01-09T15:44:26.149Z,98758.09
2023-01-09T15:46:59.629Z,98759.53
2023-01-09T15:49:27.263Z,98763.63
2023-01-09T15:51:54.801Z,98763.28
2023-01-09T15:54:30.794Z,98764.78
2023-01-09T15:57:25.949Z,98760.94
2023-01-09T15:59:55.022Z,98777.03
2023-01-09T16:02:44.156Z,98780.53
2023-01-09T16:05:17.338Z,98786.41
2023-01-09T16:07:50.833Z,98786.94
2023-01-09T16:10:34.119Z,98793.38
2023-01-09T16:13:02.545Z,98797.88
2023-01-09T16:15:34.751Z,98811.13
2023-01-09T16:18:23.807Z,98812.47
2023-01-09T16:21:37.481Z,98815.09
2023-01-09T16:24:44.632Z,98818.91
2023-01-09T16:27:35.193Z,98825.63
2023-01-09T16:30:20.620Z,98824.84
2023-01-09T16:32:51.365Z,98828.13
2023-01-09T16:35:25.986Z,98828.88
2023-01-09T16:37:53.237Z,98834.63
2023-01-09T16:40:26.915Z,98837.88
2023-01-09T16:43:00.629Z,98829.66
2023-01-09T16:45:41.089Z,98838.97
2023-01-09T16:48:22.148Z,98834.41
2023-01-09T16:50:49.320Z,98844.03
2023-01-09T16:53:25.566Z,98846.38
2023-01-09T16:55:54.465Z,98848.75
2023-01-09T16:58:32.557Z,98852.81
2023-01-09T17:00:59.765Z,98849.13
2023-01-09T17:03:27.180Z,98857.88
2023-01-09T17:06:00.711Z,98849.53
2023-01-09T17:08:35.874Z,98857.72
2023-01-09T17:11:04.285Z,98862.91
2023-01-09T17:13:31.607Z,98855.47
2023-01-09T17:15:59.812Z,98866.31
2023-01-09T17:18:28.659Z,98863.97
2023-01-09T17:20:59.215Z,98870.63
2023-01-09T17:23:26.447Z,98875.97
2023-01-09T17:26:18.491Z,98879.22
2023-01-09T17:28:51.408Z,98881.00
2023-01-09T17:31:19.286Z,98875.81
2023-01-09T17:33:46.534Z,98880.28
2023-01-09T17:36:46.516Z,98898.00
2023-01-09T17:39:16.136Z,98896.03
2023-01-09T17:41:45.043Z,98897.00
2023-01-09T17:44:12.786Z,98886.38
2023-01-09T17:46:46.290Z,98887.59
2023-01-09T17:49:21.110Z,98891.66
2023-01-09T17:51:48.754Z,98887.94
2023-01-09T17:54:16.280Z,98890.19
2023-01-09T17:56:49.189Z,98893.56
2023-01-09T17:59:17.052Z,98890.97
2023-01-09T18:01:45.330Z,98884.22
2023-01-09T18:04:12.697Z,98885.72
2023-01-09T18:06:39.897Z,98891.16
2023-01-09T18:09:08.616Z,98895.16
2023-01-09T18:11:35.964Z,98903.75
2023-01-09T18:14:03.122Z,98905.69
2023-01-09T18:16:30.475Z,98905.84
2023-01-09T18:18:59.128Z,98900.94
2023-01-09T18:21:28.857Z,98894.09
2023-01-09T18:23:57.800Z,98898.25
2023-01-09T18:26:25.300Z,98889.56
2023-01-09T18:28:58.292Z,98897.72
2023-01-09T18:31:27.921Z,98901.00
2023-01-09T18:33:58.235Z,98903.84
2023-01-09T18:36:29.639Z,98903.75
2023-01-09T18:39:03.373Z,98903.38
2023-01-09T18:41:32.094Z,98904.09
2023-01-09T18:44:01.460Z,98887.88
2023-01-09T18:46:32.288Z,98897.22
2023-01-09T18:49:03.547Z,98898.06
2023-01-09T18:51:33.168Z,98909.16
2023-01-09T18:54:00.840Z,98897.97
2023-01-09T18:56:28.260Z,98905.44
2023-01-09T18:58:57.893Z,98901.84
2023-01-09T19:01:28.303Z,98910.13
2023-01-09T19:03:57.973Z,98921.97
2023-01-09T19:06:27.491Z,98924.28
2023-01-09T19:08:55.092Z,98925.31
2023-01-09T19:11:22.464Z,98933.19
2023-01-09T19:13:50.581Z,98927.28
2023-01-09T19:16:18.470Z,98932.47
2023-01-09T19:18:45.976Z,98930.59
2023-01-09T19:21:19.152Z,98936.94
2023-01-09T19:23:48.751Z,98948.66
2023-01-09T19:26:28.284Z,98953.00
2023-01-09T19:28:57.340Z,98959.16
2023-01-09T19:31:28.363Z,98970.81
2023-01-09T19:33:56.995Z,98965.06
2023-01-09T19:36:24.277Z,98979.19
2023-01-09T19:39:01.578Z,98980.31
2023-01-09T19:41:29.593Z,98981.38
2023-01-09T19:43:58.702Z,98990.22
2023-01-09T19:46:26.551Z,98996.50
2023-01-09T19:48:54.214Z,98997.41
2023-01-09T19:51:22.405Z,99003.72
2023-01-09T19:56:33.923Z,99012.44
2023-01-09T19:59:04.394Z,99027.22
2023-01-09T20:01:36.664Z,99035.84
2023-01-09T20:04:13.235Z,99029.22
2023-01-09T20:06:47.661Z,99036.53
2023-01-09T20:09:19.353Z,99040.44
2023-01-09T20:11:46.617Z,99038.06
2023-01-09T20:14:17.204Z,99047.72
2023-01-09T20:16:48.328Z,99051.97
2023-01-09T20:19:16.590Z,99052.28
2023-01-09T20:21:44.140Z,99056.94
2023-01-09T20:24:16.769Z,99061.53
2023-01-09T20:26:46.294Z,99069.28
2023-01-09T20:29:13.591Z,99076.56
2023-01-09T20:31:40.925Z,99084.53
2023-01-09T20:34:10.772Z,99081.56
2023-01-09T20:36:38.010Z,99083.78
2023-01-09T20:39:08.088Z,99090.75
2023-01-09T20:41:35.258Z,99089.69
2023-01-09T20:44:07.085Z,99093.78
2023-01-09T20:46:40.129Z,99095.28
2023-01-09T20:49:12.124Z,99103.22
2023-01-09T20:51:47.105Z,99105.25
2023-01-09T20:54:16.898Z,99110.81
2023-01-09T20:56:44.187Z,99114.50
2023-01-09T20:59:17.665Z,99127.56
2023-01-09T21:01:44.905Z,99122.19
2023-01-09T21:04:12.090Z,99124.66
2023-01-09T21:06:39.656Z,99142.69
2023-01-09T21:09:07.090Z,99144.97
2023-01-09T21:11:34.792Z,99143.88
2023-01-09T21:14:02.199Z,99146.94
2023-01-09T21:16:29.456Z,99158.50
2023-01-09T21:18:56.701Z,99154.28
2023-01-09T21:21:27.458Z,99157.69
2023-01-09T21:23:58.303Z,99165.00
2023-01-09T21:26:30.210Z,99171.16
2023-01-09T21:29:00.674Z,99166.63
2023-01-09T21:31:35.449Z,99170.19
2023-01-09T21:34:08.213Z,99172.44
2023-01-09T21:36:36.179Z,99171.34
2023-01-09T21:39:08.089Z,99172.09
2023-01-09T21:41:55.006Z,99181.66
2023-01-09T21:44:40.974Z,99168.91
2023-01-09T21:47:08.917Z,99183.44
2023-01-09T21:49:41.907Z,99186.34
2023-01-09T21:52:12.965Z,99197.28
2023-01-09T21:54:41.274Z,99197.66
2023-01-09T21:57:09.101Z,99197.94
2023-01-09T21:59:37.502Z,99192.25
2023-01-09T22:02:04.659Z,99203.69
2023-01-09T22:04:32.391Z,99204.56
2023-01-09T22:06:59.571Z,99204.91
2023-01-09T22:09:26.940Z,99201.78
2023-01-09T22:11:54.226Z,99203.53
2023-01-09T22:14:21.812Z,99199.19
2023-01-09T22:16:49.169Z,99211.69
2023-01-09T22:19:20.343Z,99216.16
2023-01-09T22:21:48.370Z,99214.69
2023-01-09T22:24:18.794Z,99218.84
2023-01-09T22:26:46.447Z,99219.06
2023-01-09T22:29:14.285Z,99228.75
2023-01-09T22:31:42.995Z,99230.13
2023-01-09T22:34:16.422Z,99239.69
2023-01-09T22:36:46.080Z,99246.19
2023-01-09T22:39:17.278Z,99247.25
2023-01-09T22:41:45.428Z,99251.38
2023-01-09T22:44:13.055Z,99248.28
2023-01-09T22:46:40.338Z,99257.28
2023-01-09T22:49:07.686Z,99255.94
2023-01-09T22:51:35.136Z,99252.56
2023-01-09T22:54:02.475Z,99254.44
2023-01-09T22:56:32.112Z,99265.84
2023-01-09T22:59:00.753Z,99269.38
2023-01-09T23:01:28.598Z,99266.81
2023-01-09T23:03:55.808Z,99271.63
2023-01-09T23:06:25.216Z,99272.06
2023-01-09T23:08:53.455Z,99277.78
2023-01-09T23:11:50.012Z,99268.34
2023-01-09T23:14:17.788Z,99272.06
2023-01-09T23:16:45.073Z,99270.22
2023-01-09T23:19:15.681Z,99278.88
2023-01-09T23:21:45.039Z,99284.59
2023-01-09T23:24:15.472Z,99280.75
2023-01-09T23:26:44.480Z,99281.38
2023-01-09T23:29:12.932Z,99286.19
2023-01-09T23:31:40.757Z,99280.47
2023-01-09T23:34:08.361Z,99283.84
2023-01-09T23:36:36.055Z,99273.63
2023-01-09T23:39:08.585Z,99288.31
2023-01-09T23:41:55.637Z,99288.31
2023-01-09T23:44:23.170Z,99289.47
2023-01-09T23:46:50.561Z,99292.97
2023-01-09T23:49:18.027Z,99285.75
2023-01-09T23:51:46.262Z,99292.91
2023-01-09T23:54:14.984Z,99293.88
2023-01-09T23:56:42.212Z,99297.47
2023-01-09T23:59:12.934Z,99299.69
